Time;durP1;ratioP1;P1;durP2;ratioP2;P2;SDS_P1;SDS_P2;PMS_P1;PMS_P2;Temp;Humidity;BMP_temperature;BMP_pressure;BME280_temperature;BME280_humidity;BME280_pressure;Samples;Min_cycle;Max_cycle;Signal;HPM_P1;HPM_P2
2021/01/10 00:01:46;;;;;;;20.40;7.00;;;;;;;-6.43;85.39;99699.44;5111340;28;20048;-80
2021/01/10 00:04:12;;;;;;;17.50;6.70;;;;;;;-6.58;85.61;99678.88;5110079;28;20040;-80
2021/01/10 00:06:40;;;;;;;14.60;6.33;;;;;;;-6.51;85.61;99687.44;5111310;28;20051;-79
2021/01/10 00:09:06;;;;;;;17.77;7.03;;;;;;;-6.53;85.42;99692.81;5110547;28;20052;-79
2021/01/10 00:11:33;;;;;;;14.03;5.50;;;;;;;-6.63;85.37;99672.94;5111476;28;20411;-80
2021/01/10 00:13:59;;;;;;;14.03;5.47;;;;;;;-6.64;85.25;99676.50;5110568;28;20351;-80
2021/01/10 00:16:29;;;;;;;11.40;5.70;;;;;;;-6.69;86.07;99675.84;5111811;28;20055;-80
2021/01/10 00:19:09;;;;;;;11.13;4.65;;;;;;;-6.46;86.42;99710.16;5111354;28;20051;-80
2021/01/10 00:21:38;;;;;;;11.90;5.60;;;;;;;-6.56;85.79;99697.34;5111259;28;20229;-80
2021/01/10 00:24:06;;;;;;;7.33;4.10;;;;;;;-6.63;85.30;99683.53;5111068;28;20044;-80
2021/01/10 00:26:34;;;;;;;8.57;4.60;;;;;;;-6.71;85.95;99678.56;5111140;28;20049;-80
2021/01/10 00:29:02;;;;;;;10.03;4.93;;;;;;;-6.53;85.40;99710.44;5110855;28;20059;-80
2021/01/10 00:31:47;;;;;;;10.73;5.30;;;;;;;-6.61;85.06;99692.25;5110776;28;20062;-80
2021/01/10 00:34:14;;;;;;;11.37;5.20;;;;;;;-6.56;85.43;99711.44;5111487;28;20051;-80
2021/01/10 00:36:40;;;;;;;10.53;4.27;;;;;;;-6.74;85.29;99677.81;5110311;28;20556;-80
2021/01/10 00:39:09;;;;;;;8.87;4.63;;;;;;;-6.77;84.99;99663.78;5109852;28;20044;-80
2021/01/10 00:41:36;;;;;;;13.90;5.40;;;;;;;-6.74;85.18;99680.44;5110625;28;20055;-80
2021/01/10 00:44:03;;;;;;;9.10;4.13;;;;;;;-6.64;84.36;99698.53;5110412;28;20051;-80
2021/01/10 00:46:30;;;;;;;9.93;4.57;;;;;;;-6.62;85.31;99711.69;5109553;28;20109;-80
2021/01/10 00:48:56;;;;;;;12.73;4.77;;;;;;;-6.64;84.60;99710.88;5110773;28;20044;-80
2021/01/10 00:51:23;;;;;;;10.00;4.57;;;;;;;-6.73;84.94;99709.47;5111149;28;20197;-80
2021/01/10 00:53:50;;;;;;;12.50;5.10;;;;;;;-6.90;85.52;99696.09;5109689;28;20047;-79
2021/01/10 00:56:17;;;;;;;9.27;5.20;;;;;;;-6.81;85.00;99708.94;5110293;28;20478;-79
2021/01/10 00:58:46;;;;;;;13.37;4.90;;;;;;;-6.91;84.94;99674.06;5109196;28;20048;-80
2021/01/10 01:01:12;;;;;;;10.63;4.90;;;;;;;-6.90;85.45;99680.22;5110744;28;20043;-79
2021/01/10 01:03:41;;;;;;;13.10;4.90;;;;;;;-6.70;84.41;99724.38;5112178;28;20071;-80
2021/01/10 01:06:11;;;;;;;13.32;4.82;;;;;;;-6.71;85.83;99717.34;5109398;28;20042;-80
2021/01/10 01:08:42;;;;;;;11.63;5.18;;;;;;;-6.74;84.44;99723.63;5111578;28;20051;-80
2021/01/10 01:11:16;;;;;;;9.10;4.40;;;;;;;-6.78;85.66;99724.69;5110211;28;20484;-80
2021/01/10 01:14:01;;;;;;;15.07;5.17;;;;;;;-7.05;85.17;99687.00;5093995;28;20643;-80
2021/01/10 01:16:55;;;;;;;8.57;4.90;;;;;;;-6.83;85.85;99724.00;5106606;28;20554;-80
2021/01/10 01:19:40;;;;;;;;;;;;;;;;;;;;;
2021/01/10 01:22:25;;;;;;;10.90;4.23;;;;;;;-7.07;85.54;99708.19;5101106;28;20047;-80
2021/01/10 01:24:51;;;;;;;13.27;5.23;;;;;;;-6.92;85.16;99735.81;5114665;28;20051;-79
2021/01/10 01:27:17;;;;;;;11.33;4.30;;;;;;;-6.99;84.12;99721.94;5111426;28;20435;-80
2021/01/10 01:29:44;;;;;;;9.90;4.07;;;;;;;-6.91;85.13;99742.78;5113905;28;20101;-79
2021/01/10 01:32:11;;;;;;;10.17;4.83;;;;;;;-6.99;84.85;99742.25;5112950;28;20044;-79
2021/01/10 01:34:37;;;;;;;10.17;4.63;;;;;;;-7.11;85.13;99714.50;5112585;28;20117;-79
2021/01/10 01:37:04;;;;;;;8.53;4.53;;;;;;;-6.90;85.19;99738.38;5116384;28;20047;-79
2021/01/10 01:39:30;;;;;;;9.40;4.00;;;;;;;-6.92;85.43;99756.97;5114692;28;20138;-79
2021/01/10 01:41:56;;;;;;;10.00;4.43;;;;;;;-7.16;85.84;99743.75;5114440;28;20043;-79
2021/01/10 01:44:22;;;;;;;9.83;4.77;;;;;;;-7.07;85.83;99754.91;5113895;28;20055;-79
2021/01/10 01:46:50;;;;;;;8.77;4.20;;;;;;;-7.13;85.44;99732.22;5114575;28;20074;-80
2021/01/10 01:49:17;;;;;;;10.17;4.70;;;;;;;-7.25;86.37;99724.78;5115822;28;20117;-79
2021/01/10 01:51:45;;;;;;;9.63;4.30;;;;;;;-7.08;85.53;99751.38;5113961;28;20388;-79
2021/01/10 01:54:13;;;;;;;11.43;4.47;;;;;;;-7.17;85.53;99741.19;5112664;28;20047;-79
2021/01/10 01:56:39;;;;;;;11.93;4.93;;;;;;;-7.08;85.27;99751.38;5115292;27;20046;-80
2021/01/10 01:59:07;;;;;;;8.83;4.63;;;;;;;-7.23;85.25;99734.34;5113391;28;20385;-79
2021/01/10 02:01:35;;;;;;;15.07;4.83;;;;;;;-7.07;86.01;99754.91;5115402;28;20551;-80
2021/01/10 02:04:12;;;;;;;10.67;4.83;;;;;;;-7.23;85.33;99723.78;5115394;28;20048;-80
2021/01/10 02:06:49;;;;;;;10.00;4.43;;;;;;;-7.19;85.33;99733.31;5113230;28;20052;-80
2021/01/10 02:09:19;;;;;;;10.77;4.70;;;;;;;-7.24;85.38;99735.28;5116306;28;20109;-80
2021/01/10 02:11:50;;;;;;;10.87;4.67;;;;;;;-7.13;85.07;99756.00;5116563;28;20396;-79
2021/01/10 02:14:20;;;;;;;11.20;5.37;;;;;;;-7.11;84.71;99741.78;5116042;28;20055;-79
2021/01/10 02:16:48;;;;;;;8.27;4.13;;;;;;;-7.24;85.45;99748.50;5116381;28;20070;-80
2021/01/10 02:19:22;;;;;;;11.23;4.77;;;;;;;-7.21;84.92;99743.09;5108417;28;20048;-79
2021/01/10 02:21:52;;;;;;;10.47;4.17;;;;;;;-7.31;84.20;99720.56;5116264;28;20130;-80
2021/01/10 02:24:20;;;;;;;9.77;4.77;;;;;;;-7.28;85.25;99744.25;5116092;28;20043;-79
2021/01/10 02:26:47;;;;;;;8.60;4.53;;;;;;;-7.23;84.69;99747.56;5116358;28;20075;-79
2021/01/10 02:29:14;;;;;;;10.00;5.10;;;;;;;-7.17;85.33;99752.59;5115595;28;20507;-80
2021/01/10 02:31:41;;;;;;;9.20;4.43;;;;;;;-7.19;84.49;99750.97;5116447;28;20056;-79
2021/01/10 02:34:11;;;;;;;7.50;4.10;;;;;;;-7.27;84.78;99748.63;5116371;28;20059;-79
2021/01/10 02:36:51;;;;;;;;;;;;;;;-7.25;84.63;99753.84;5116661;28;20055;-80
2021/01/10 02:39:27;;;;;;;10.10;4.40;;;;;;;-7.35;84.42;99734.81;5116545;28;19920;-79
2021/01/10 02:42:00;;;;;;;10.93;4.67;;;;;;;-7.33;84.80;99738.25;5107680;28;20134;-80
2021/01/10 02:44:31;;;;;;;9.43;4.53;;;;;;;-7.22;84.86;99737.88;5115466;28;20051;-80
2021/01/10 02:46:58;;;;;;;10.70;5.23;;;;;;;-7.18;85.03;99745.63;5116380;28;20101;-79
2021/01/10 02:49:24;;;;;;;10.53;4.40;;;;;;;-7.41;85.33;99720.03;5115957;28;20055;-79
2021/01/10 02:51:50;;;;;;;11.00;5.73;;;;;;;-7.43;85.39;99718.41;5115998;28;20044;-80
2021/01/10 02:54:19;;;;;;;12.47;5.17;;;;;;;-7.35;85.78;99717.16;5115970;28;20051;-79
2021/01/10 02:56:51;;;;;;;7.43;3.93;;;;;;;-7.51;84.88;99708.09;5115716;28;20063;-79
2021/01/10 02:59:22;;;;;;;9.27;4.13;;;;;;;-7.55;85.53;99706.53;5127788;27;20053;-79
2021/01/10 03:01:52;;;;;;;10.80;4.73;;;;;;;-7.64;85.49;99689.22;5113902;28;20059;-80
2021/01/10 03:04:19;;;;;;;7.33;3.30;;;;;;;-7.47;85.66;99731.72;5115238;28;20065;-80
2021/01/10 03:06:46;;;;;;;9.07;4.03;;;;;;;-7.64;85.81;99699.78;5100090;28;20052;-79
2021/01/10 03:09:14;;;;;;;7.10;3.77;;;;;;;-7.54;85.09;99709.09;5104950;28;20059;-79
2021/01/10 03:11:43;;;;;;;8.57;4.00;;;;;;;-7.54;85.11;99717.03;5107177;28;20047;-79
2021/01/10 03:14:20;;;;;;;;;;;;;;;-7.43;85.80;99715.75;5115883;28;20043;-79
2021/01/10 03:16:49;;;;;;;7.77;3.57;;;;;;;-7.58;85.47;99715.41;5115703;28;19920;-79
2021/01/10 03:19:16;;;;;;;8.07;4.10;;;;;;;-7.49;85.84;99728.25;5115595;28;20048;-79
2021/01/10 03:21:44;;;;;;;10.60;3.80;;;;;;;-7.66;84.61;99704.28;5094709;28;20044;-79
2021/01/10 03:24:12;;;;;;;9.35;4.47;;;;;;;-7.48;85.43;99721.22;5110987;28;20407;-79
2021/01/10 03:26:39;;;;;;;10.30;4.50;;;;;;;-7.44;84.38;99716.66;5115569;28;20048;-79
2021/01/10 03:29:05;;;;;;;10.37;4.27;;;;;;;-7.45;84.32;99718.47;5114593;28;20495;-79
2021/01/10 03:31:31;;;;;;;8.50;4.30;;;;;;;-7.65;84.69;99687.50;5114727;28;20043;-80
2021/01/10 03:33:58;;;;;;;9.63;4.70;;;;;;;-7.63;84.26;99695.38;5115136;28;20105;-79
2021/01/10 03:36:25;;;;;;;8.73;3.50;;;;;;;-7.62;85.47;99707.66;5114354;28;20044;-79
2021/01/10 03:38:51;;;;;;;10.63;4.00;;;;;;;-7.71;85.27;99688.59;5115497;28;20051;-80
2021/01/10 03:41:17;;;;;;;10.77;5.03;;;;;;;-7.74;85.79;99680.78;5114089;28;20048;-79
2021/01/10 03:43:44;;;;;;;11.03;4.33;;;;;;;-7.71;85.77;99693.84;5115029;28;20062;-79
2021/01/10 03:46:10;;;;;;;8.40;3.77;;;;;;;-7.62;84.99;99718.22;5114026;28;20043;-79
2021/01/10 03:48:39;;;;;;;12.87;5.17;;;;;;;-7.60;84.74;99701.41;5114814;28;20060;-79
2021/01/10 03:51:07;;;;;;;11.50;5.25;;;;;;;-7.49;85.21;99715.06;5114627;28;20736;-79
2021/01/10 03:53:34;;;;;;;7.20;3.53;;;;;;;-7.60;84.53;99711.09;5114587;28;20063;-79
2021/01/10 03:56:00;;;;;;;10.23;4.57;;;;;;;-7.79;85.29;99689.81;5114671;28;20054;-79
2021/01/10 03:58:26;;;;;;;11.40;4.63;;;;;;;-7.79;85.52;99703.00;5114454;28;20043;-79
2021/01/10 04:00:54;;;;;;;12.43;4.83;;;;;;;-7.80;87.10;99701.28;5113958;28;20046;-79
2021/01/10 04:03:20;;;;;;;15.03;4.20;;;;;;;-7.67;85.68;99713.97;5114340;28;20048;-79
2021/01/10 04:05:47;;;;;;;12.37;5.13;;;;;;;-7.71;84.54;99695.66;5113663;28;20074;-79
2021/01/10 04:08:14;;;;;;;10.40;4.43;;;;;;;-7.80;84.98;99709.19;5113681;28;20043;-79
2021/01/10 04:10:43;;;;;;;13.87;4.27;;;;;;;-7.88;85.32;99710.31;5113480;28;20040;-79
2021/01/10 04:13:10;;;;;;;14.27;5.57;;;;;;;-7.83;85.07;99720.72;5111511;28;20404;-79
2021/01/10 04:15:36;;;;;;;10.00;4.43;;;;;;;-8.05;85.04;99696.88;5112579;28;20050;-79
2021/01/10 04:18:04;;;;;;;7.67;4.47;;;;;;;-8.01;85.31;99712.56;5113552;28;20047;-79
2021/01/10 04:20:30;;;;;;;10.70;5.00;;;;;;;-7.98;85.53;99727.41;5112991;28;20047;-79
2021/01/10 04:22:56;;;;;;;8.33;4.23;;;;;;;-7.92;86.07;99735.09;5113188;28;20051;-79
2021/01/10 04:25:23;;;;;;;9.10;4.27;;;;;;;-7.88;85.67;99736.72;5113962;28;20633;-80
2021/01/10 04:27:50;;;;;;;7.27;4.10;;;;;;;-7.97;85.65;99734.41;5113126;28;20528;-79
2021/01/10 04:30:16;;;;;;;11.97;4.13;;;;;;;-8.04;85.99;99707.41;5113771;28;20054;-79
2021/01/10 04:32:43;;;;;;;9.70;4.20;;;;;;;-7.98;86.53;99716.84;5113562;28;20050;-79
2021/01/10 04:35:09;;;;;;;10.77;4.87;;;;;;;-7.96;86.39;99699.19;5113811;28;20130;-79
2021/01/10 04:37:37;;;;;;;11.83;4.80;;;;;;;-7.88;86.69;99704.19;5113662;28;20054;-79
2021/01/10 04:40:04;;;;;;;11.17;4.57;;;;;;;-7.68;86.14;99725.47;5113710;28;20048;-79
2021/01/10 04:42:33;;;;;;;8.50;4.47;;;;;;;-7.69;86.73;99686.75;5113967;28;20048;-79
2021/01/10 04:45:00;;;;;;;13.82;4.30;;;;;;;-7.56;86.76;99700.34;5110421;28;20058;-79
2021/01/10 04:47:27;;;;;;;11.00;4.63;;;;;;;-7.58;86.86;99698.72;5113725;28;20518;-78
2021/01/10 04:49:54;;;;;;;9.83;4.47;;;;;;;-7.50;87.15;99709.84;5113094;28;20055;-78
2021/01/10 04:52:21;;;;;;;12.30;4.47;;;;;;;-7.50;88.32;99705.44;5113538;28;20054;-78
2021/01/10 04:54:51;;;;;;;13.70;5.67;;;;;;;-7.42;87.96;99696.34;5113460;28;20069;-78
2021/01/10 04:57:21;;;;;;;9.70;4.33;;;;;;;-7.26;88.99;99723.03;5113824;28;20067;-79
2021/01/10 04:59:50;;;;;;;17.13;4.95;;;;;;;-7.35;88.76;99689.91;5118529;28;20139;-79
2021/01/10 05:02:24;;;;;;;15.68;4.80;;;;;;;-7.19;88.15;99716.59;5113755;28;20051;-79
2021/01/10 05:04:51;;;;;;;7.27;4.10;;;;;;;-7.26;88.70;99713.31;5113090;28;20093;-79
2021/01/10 05:07:17;;;;;;;14.87;6.30;;;;;;;-7.17;89.06;99709.47;5113397;28;20043;-79
2021/01/10 05:09:46;;;;;;;11.23;5.57;;;;;;;-7.01;89.25;99713.22;5113122;28;20487;-79
2021/01/10 05:12:12;;;;;;;12.60;5.83;;;;;;;-6.96;88.58;99716.53;5113257;28;20039;-79
2021/01/10 05:14:39;;;;;;;11.77;5.57;;;;;;;-6.95;88.22;99707.69;5092943;28;20055;-79
2021/01/10 05:17:15;;;;;;;13.50;5.93;;;;;;;-6.85;87.83;99720.53;5093220;28;20097;-79
2021/01/10 05:19:46;;;;;;;13.50;5.77;;;;;;;-6.83;88.12;99727.50;5093088;28;20051;-79
2021/01/10 05:22:12;;;;;;;14.80;5.23;;;;;;;-6.90;88.08;99723.38;5097273;28;20105;-79
2021/01/10 05:24:39;;;;;;;11.13;5.77;;;;;;;-6.79;88.02;99720.28;5113050;28;20044;-79
2021/01/10 05:27:05;;;;;;;12.87;6.60;;;;;;;-6.66;88.28;99733.91;5113780;28;20116;-78
2021/01/10 05:29:32;;;;;;;13.83;7.03;;;;;;;-6.73;88.90;99708.63;5113631;28;20055;-79
2021/01/10 05:31:58;;;;;;;14.20;5.07;;;;;;;-6.67;88.86;99703.97;5113665;28;20404;-79
2021/01/10 05:34:26;;;;;;;13.27;5.90;;;;;;;-6.64;88.25;99721.47;5112880;28;20051;-79
2021/01/10 05:36:53;;;;;;;11.43;4.97;;;;;;;-6.55;88.44;99710.50;5113290;28;20036;-79
2021/01/10 05:39:21;;;;;;;13.30;5.83;;;;;;;-6.48;88.94;99724.34;5113409;28;20702;-79
2021/01/10 05:41:53;;;;;;;9.33;4.73;;;;;;;-6.37;88.32;99722.09;5113464;28;20047;-79
2021/01/10 05:44:20;;;;;;;13.60;6.67;;;;;;;-6.57;89.16;99688.56;5112099;28;20040;-79
2021/01/10 05:46:47;;;;;;;13.17;5.87;;;;;;;-6.51;88.93;99685.66;5113296;28;20060;-79
2021/01/10 05:49:18;;;;;;;12.10;6.23;;;;;;;-6.44;88.76;99712.72;5113087;28;20510;-79
2021/01/10 05:51:46;;;;;;;11.37;5.83;;;;;;;-6.37;88.48;99708.03;5101803;28;20055;-79
2021/01/10 05:54:34;;;;;;;8.57;5.43;;;;;;;-6.26;89.65;99721.69;5112347;28;20052;-79
2021/01/10 05:57:03;;;;;;;9.17;4.87;;;;;;;-6.35;88.85;99703.53;5112720;28;20079;-79
2021/01/10 05:59:30;;;;;;;11.57;5.83;;;;;;;-6.25;89.27;99716.31;5102300;28;20051;-79
2021/01/10 06:01:57;;;;;;;16.30;7.27;;;;;;;-6.32;88.75;99685.75;5111892;28;20048;-79
2021/01/10 06:04:26;;;;;;;11.93;6.10;;;;;;;-6.33;89.73;99696.41;5113005;28;20089;-79
2021/01/10 06:06:54;;;;;;;13.57;5.68;;;;;;;-6.25;89.27;99710.16;5116139;28;20059;-79
2021/01/10 06:09:21;;;;;;;12.37;5.80;;;;;;;-6.18;89.04;99711.63;5116233;28;20055;-79
2021/01/10 06:11:47;;;;;;;13.43;5.80;;;;;;;-6.15;89.00;99724.72;5116167;28;20070;-79
2021/01/10 06:14:20;;;;;;;11.77;5.80;;;;;;;-6.25;88.80;99688.97;5116107;28;20418;-79
2021/01/10 06:16:53;;;;;;;13.63;5.47;;;;;;;-6.06;89.31;99721.66;5116002;28;20044;-79
2021/01/10 06:19:26;;;;;;;11.30;5.73;;;;;;;-6.12;89.64;99697.25;5115961;28;20035;-79
2021/01/10 06:21:57;;;;;;;13.03;5.83;;;;;;;-6.10;89.73;99693.59;5116530;28;20048;-79
2021/01/10 06:24:24;;;;;;;18.70;7.23;;;;;;;-6.02;89.29;99700.34;5116284;28;20578;-79
2021/01/10 06:27:02;;;;;;;13.63;5.70;;;;;;;-6.04;89.49;99695.13;5116414;28;20079;-79
2021/01/10 06:29:34;;;;;;;14.40;6.17;;;;;;;-5.89;89.32;99722.69;5116016;28;20130;-79
2021/01/10 06:32:08;;;;;;;13.20;5.77;;;;;;;-5.89;89.57;99725.34;5116126;28;20042;-79
2021/01/10 06:34:37;;;;;;;11.53;5.93;;;;;;;-5.89;89.24;99727.97;5109054;28;20047;-79
2021/01/10 06:37:10;;;;;;;16.73;6.83;;;;;;;-5.78;89.30;99730.16;5115889;28;20054;-79
2021/01/10 06:39:45;;;;;;;10.73;5.73;;;;;;;-5.74;89.64;99729.94;5116123;28;20094;-79
2021/01/10 06:42:13;;;;;;;16.23;7.07;;;;;;;-5.92;89.93;99702.50;5116230;28;20043;-79
2021/01/10 06:44:59;;;;;;;14.57;6.93;;;;;;;-5.66;89.30;99729.63;5115685;28;20047;-79
2021/01/10 06:47:25;;;;;;;11.27;5.97;;;;;;;-5.77;90.20;99714.19;5112322;28;20093;-79
2021/01/10 06:49:53;;;;;;;15.07;6.03;;;;;;;-5.63;90.07;99716.25;5115780;28;20044;-79
2021/01/10 06:52:24;;;;;;;15.93;6.30;;;;;;;-5.74;90.35;99711.41;5116160;28;20054;-79
2021/01/10 06:54:51;;;;;;;12.83;6.23;;;;;;;-5.88;89.72;99693.50;5115676;28;20079;-79
2021/01/10 06:57:18;;;;;;;14.50;6.37;;;;;;;-5.71;89.61;99702.47;5115841;28;20088;-79
2021/01/10 07:00:02;;;;;;;13.20;6.13;;;;;;;-5.65;89.99;99710.16;5115787;28;20043;-79
2021/01/10 07:02:30;;;;;;;14.90;6.33;;;;;;;-5.65;89.30;99712.78;5113423;28;20043;-79
2021/01/10 07:05:01;;;;;;;11.90;6.30;;;;;;;-5.71;89.59;99691.88;5115154;28;20120;-79
2021/01/10 07:07:37;;;;;;;13.93;6.47;;;;;;;-5.51;89.61;99717.47;5098795;28;20047;-78
2021/01/10 07:10:06;;;;;;;11.93;6.13;;;;;;;-5.60;89.75;99715.22;5115519;28;20142;-80
2021/01/10 07:12:33;;;;;;;16.90;7.07;;;;;;;-5.58;89.88;99703.66;5115743;28;20079;-79
2021/01/10 07:15:27;;;;;;;10.37;5.23;;;;;;;-5.45;89.12;99719.88;5114930;28;20051;-79
2021/01/10 07:18:05;;;;;;;15.37;6.37;;;;;;;-5.64;89.56;99701.28;5104724;28;20047;-79
2021/01/10 07:20:36;;;;;;;14.63;6.10;;;;;;;-5.45;89.54;99727.81;5099927;28;20476;-79
2021/01/10 07:23:29;;;;;;;14.37;6.53;;;;;;;-5.42;89.20;99729.44;5115705;28;20058;-79
2021/01/10 07:25:56;;;;;;;11.33;5.77;;;;;;;-5.42;89.78;99727.66;5115113;28;20055;-79
2021/01/10 07:28:47;;;;;;;14.20;6.73;;;;;;;-5.25;89.23;99729.53;5115323;28;20047;-79
2021/01/10 07:31:21;;;;;;;11.43;6.83;;;;;;;-5.27;89.04;99727.88;5115368;28;20047;-79
2021/01/10 07:34:09;;;;;;;14.20;6.63;;;;;;;-5.26;89.41;99732.25;5115142;28;20417;-79
2021/01/10 07:36:47;;;;;;;13.17;6.20;;;;;;;-5.20;89.72;99742.56;5115533;28;20051;-80
2021/01/10 07:39:17;;;;;;;13.53;5.83;;;;;;;-5.19;89.60;99739.00;5115282;28;20056;-80
2021/01/10 07:41:43;;;;;;;9.50;5.78;;;;;;;-5.25;89.29;99732.19;5118570;28;20055;-80
2021/01/10 07:44:10;;;;;;;12.67;6.07;;;;;;;-5.22;88.78;99726.75;5114489;28;20047;-80
2021/01/10 07:47:01;;;;;;;14.77;7.87;;;;;;;-5.29;88.76;99719.16;5114817;28;20043;-80
2021/01/10 07:49:49;;;;;;;16.03;7.40;;;;;;;-5.23;88.86;99743.56;5115202;28;20104;-80
2021/01/10 07:52:34;;;;;;;13.63;7.57;;;;;;;-5.32;88.42;99725.44;5114859;28;20492;-80
2021/01/10 07:55:01;;;;;;;16.73;7.03;;;;;;;-5.07;88.47;99745.50;5104080;28;20121;-79
2021/01/10 07:57:33;;;;;;;14.20;7.70;;;;;;;-5.23;88.00;99706.47;5099987;28;20052;-80
2021/01/10 08:00:11;;;;;;;14.30;6.80;;;;;;;-5.30;87.97;99712.97;5104036;28;20529;-80
2021/01/10 08:02:52;;;;;;;13.77;6.17;;;;;;;-5.10;88.26;99751.81;5114497;28;20063;-80
2021/01/10 08:05:21;;;;;;;15.33;7.00;;;;;;;-5.11;87.70;99746.59;5113462;28;20480;-80
2021/01/10 08:07:52;;;;;;;12.68;5.97;;;;;;;-5.22;87.54;99741.78;5108621;28;20051;-80
2021/01/10 08:10:19;;;;;;;14.87;6.67;;;;;;;-5.20;88.01;99748.72;5114191;28;20415;-80
2021/01/10 08:12:47;;;;;;;13.33;6.63;;;;;;;-5.23;87.86;99748.03;5114234;28;20048;-80
2021/01/10 08:15:23;;;;;;;13.57;7.10;;;;;;;-5.28;88.19;99744.69;5113935;28;20048;-80
2021/01/10 08:18:07;;;;;;;11.50;5.77;;;;;;;-5.15;88.73;99753.81;5114515;28;20073;-80
2021/01/10 08:20:34;;;;;;;20.57;7.97;;;;;;;-5.23;87.77;99748.88;5114318;28;20047;-80
2021/01/10 08:23:01;;;;;;;17.20;7.70;;;;;;;-5.14;88.20;99752.91;5107276;28;20057;-80
2021/01/10 08:25:28;;;;;;;12.13;6.10;;;;;;;-5.17;88.18;99755.69;5100925;28;20043;-78
2021/01/10 08:28:03;;;;;;;13.03;6.27;;;;;;;-5.18;88.15;99757.50;5113535;28;20047;-80
2021/01/10 08:30:30;;;;;;;13.70;5.93;;;;;;;-5.31;88.06;99740.44;5113665;28;20048;-79
2021/01/10 08:32:57;;;;;;;14.17;6.10;;;;;;;-5.30;87.83;99746.56;5113608;28;20051;-81
2021/01/10 08:35:23;;;;;;;16.20;6.27;;;;;;;-5.14;87.67;99758.19;5113235;28;20488;-79
2021/01/10 08:37:49;;;;;;;13.20;5.93;;;;;;;-5.27;87.53;99733.19;5113763;28;20051;-79
2021/01/10 08:40:16;;;;;;;12.17;6.37;;;;;;;-5.14;88.55;99757.34;5113876;28;20044;-79
2021/01/10 08:42:43;;;;;;;14.60;7.30;;;;;;;-5.24;87.83;99725.97;5113583;28;20499;-80
2021/01/10 08:45:18;;;;;;;15.67;6.77;;;;;;;-5.25;88.37;99723.38;5113377;28;20048;-80
2021/01/10 08:48:08;;;;;;;17.73;7.80;;;;;;;-4.97;87.68;99760.06;5101990;28;20055;-79
2021/01/10 08:50:40;;;;;;;;;;;;;;;-4.97;87.52;99754.75;5095608;28;20048;-80
2021/01/10 08:53:07;;;;;;;16.17;7.13;;;;;;;-5.11;87.51;99736.00;5105358;28;19920;-80
2021/01/10 08:55:37;;;;;;;17.97;7.57;;;;;;;-5.02;88.09;99743.50;5106004;28;20387;-79
2021/01/10 08:58:06;;;;;;;20.40;9.53;;;;;;;-4.88;87.77;99764.06;5113698;28;20632;-80
2021/01/10 09:00:34;;;;;;;18.33;9.00;;;;;;;-4.85;87.36;99748.88;5113117;28;20073;-80
2021/01/10 09:03:18;;;;;;;17.77;8.20;;;;;;;-4.80;87.85;99744.22;5112786;28;20122;-80
2021/01/10 09:05:47;;;;;;;11.77;6.10;;;;;;;-4.80;88.83;99748.66;5104320;28;20051;-79
2021/01/10 09:08:22;;;;;;;15.53;6.87;;;;;;;-4.69;88.13;99742.84;5112696;28;20083;-80
2021/01/10 09:10:56;;;;;;;12.53;6.90;;;;;;;-4.74;87.64;99734.22;5112613;28;20040;-79
2021/01/10 09:13:26;;;;;;;14.17;6.90;;;;;;;-4.61;87.53;99748.63;5112704;28;20541;-79
2021/01/10 09:15:54;;;;;;;14.27;7.10;;;;;;;-4.69;88.13;99733.06;5112297;28;20055;-80
2021/01/10 09:18:24;;;;;;;14.17;6.93;;;;;;;-4.63;88.50;99742.53;5112488;28;20525;-80
2021/01/10 09:20:58;;;;;;;14.03;7.00;;;;;;;-4.66;89.16;99748.00;5112128;28;20046;-79
2021/01/10 09:23:25;;;;;;;17.23;7.67;;;;;;;-4.38;89.92;99767.88;5112680;28;20055;-79
2021/01/10 09:25:51;;;;;;;14.93;7.27;;;;;;;-4.46;89.57;99749.66;5112732;28;20113;-80
2021/01/10 09:28:18;;;;;;;16.47;7.97;;;;;;;-4.46;89.29;99728.44;5112715;28;20056;-80
2021/01/10 09:30:53;;;;;;;21.70;10.17;;;;;;;-4.46;89.38;99726.66;5112997;28;20438;-80
2021/01/10 09:33:22;;;;;;;26.30;11.47;;;;;;;-4.30;88.83;99737.34;5112019;28;20043;-79
2021/01/10 09:35:49;;;;;;;;;;;;;;;-4.03;88.59;99763.47;5113298;28;20051;-80
2021/01/10 09:38:16;;;;;;;16.67;8.70;;;;;;;-4.00;88.30;99762.47;5112493;28;20022;-80
2021/01/10 09:41:05;;;;;;;19.20;10.43;;;;;;;-3.95;88.02;99761.25;5116326;28;20048;-80
2021/01/10 09:43:39;;;;;;;18.87;9.73;;;;;;;-3.98;88.23;99752.59;5097277;28;20122;-79
2021/01/10 09:46:24;;;;;;;20.43;10.37;;;;;;;-4.00;87.94;99727.94;5114241;28;20050;-80
2021/01/10 09:48:52;;;;;;;20.27;9.17;;;;;;;-3.98;87.49;99732.22;5098614;28;20056;-80
2021/01/10 09:51:18;;;;;;;21.93;10.60;;;;;;;-3.94;87.94;99731.13;5113229;28;20510;-80
2021/01/10 09:53:47;;;;;;;16.03;8.63;;;;;;;-3.75;87.70;99743.44;5116242;28;20048;-79
2021/01/10 09:56:29;;;;;;;20.83;9.30;;;;;;;-3.58;87.11;99767.34;5106599;28;20036;-79
2021/01/10 09:58:55;;;;;;;18.30;8.43;;;;;;;-3.43;87.43;99763.03;5118351;27;20101;-79
2021/01/10 10:01:22;;;;;;;15.37;8.17;;;;;;;-3.36;86.89;99765.34;5127334;27;20048;-79
2021/01/10 10:03:52;;;;;;;17.07;7.73;;;;;;;-3.34;86.97;99747.50;5112823;28;20054;-79
2021/01/10 10:06:18;;;;;;;15.87;8.67;;;;;;;-3.25;86.26;99739.91;5116551;28;20148;-79
2021/01/10 10:08:54;;;;;;;15.17;8.07;;;;;;;-3.12;86.91;99739.25;5116645;28;20051;-79
2021/01/10 10:11:20;;;;;;;15.43;8.80;;;;;;;-3.02;86.65;99746.63;5116688;28;20120;-79
2021/01/10 10:13:46;;;;;;;18.93;8.37;;;;;;;-3.11;86.10;99744.47;5116544;28;20054;-79
2021/01/10 10:16:17;;;;;;;38.47;11.80;;;;;;;-2.95;86.82;99751.59;5115942;28;20114;-79
2021/01/10 10:18:43;;;;;;;21.73;9.80;;;;;;;-2.96;86.25;99728.63;5115915;28;20526;-79
2021/01/10 10:21:10;;;;;;;18.57;8.77;;;;;;;-2.75;86.08;99754.03;5121144;28;20051;-79
2021/01/10 10:23:41;;;;;;;17.10;9.57;;;;;;;-2.85;85.79;99737.69;5116433;28;20121;-79
2021/01/10 10:26:08;;;;;;;12.23;6.90;;;;;;;-2.51;84.31;99750.94;5115593;27;20096;-79
2021/01/10 10:28:34;;;;;;;11.50;5.97;;;;;;;-2.40;82.31;99719.19;5115134;28;20047;-79
2021/01/10 10:31:00;;;;;;;12.03;6.23;;;;;;;-2.17;82.44;99732.97;5116261;28;20044;-79
2021/01/10 10:33:26;;;;;;;9.73;6.10;;;;;;;-2.10;82.83;99713.03;5116075;28;20051;-79
2021/01/10 10:35:53;;;;;;;12.93;7.07;;;;;;;-1.92;81.56;99716.41;5115886;28;20051;-79
2021/01/10 10:38:20;;;;;;;10.90;5.53;;;;;;;-1.81;81.25;99719.31;5116202;28;20407;-79
2021/01/10 10:40:46;;;;;;;10.30;6.20;;;;;;;-1.83;81.23;99709.66;5111665;28;20044;-80
2021/01/10 10:43:12;;;;;;;8.20;5.13;;;;;;;-1.70;79.23;99728.44;5116176;28;20372;-80
2021/01/10 10:45:38;;;;;;;10.03;5.67;;;;;;;-1.62;78.15;99718.16;5115614;28;20043;-79
2021/01/10 10:48:06;;;;;;;7.90;4.40;;;;;;;-1.61;78.64;99702.06;5110569;28;20094;-79
2021/01/10 10:50:33;;;;;;;22.83;6.77;;;;;;;-1.48;79.46;99727.97;5114848;28;20044;-80
2021/01/10 10:52:59;;;;;;;9.40;5.10;;;;;;;-1.58;78.80;99709.03;5115653;28;20118;-79
2021/01/10 10:55:28;;;;;;;8.60;5.20;;;;;;;-1.58;79.81;99709.03;5113561;28;20059;-78
2021/01/10 10:57:54;;;;;;;20.17;8.57;;;;;;;-1.57;80.87;99724.06;5114563;27;20093;-80
2021/01/10 11:00:21;;;;;;;17.10;8.27;;;;;;;-1.40;80.50;99724.84;5115959;28;20051;-79
2021/01/10 11:02:47;;;;;;;7.27;4.83;;;;;;;-1.32;77.21;99712.75;5115734;28;20044;-78
2021/01/10 11:05:14;;;;;;;6.47;4.07;;;;;;;-1.29;76.31;99709.03;5115327;28;20076;-79
2021/01/10 11:07:40;;;;;;;7.60;4.37;;;;;;;-1.24;77.58;99706.94;5115304;27;20059;-79
2021/01/10 11:10:08;;;;;;;8.37;4.90;;;;;;;-1.09;76.73;99711.28;5113512;28;20044;-79
2021/01/10 11:12:45;;;;;;;6.87;4.43;;;;;;;-1.06;75.80;99694.22;5114045;28;20043;-79
2021/01/10 11:15:13;;;;;;;7.30;4.70;;;;;;;-0.95;75.29;99701.53;5115146;28;20043;-79
2021/01/10 11:17:39;;;;;;;6.33;4.10;;;;;;;-0.95;75.34;99697.09;5115360;28;20101;-79
2021/01/10 11:20:06;;;;;;;9.93;4.60;;;;;;;-0.88;74.90;99697.53;5112466;28;20048;-79
2021/01/10 11:22:35;;;;;;;10.07;5.13;;;;;;;-0.82;75.64;99682.94;5096379;28;20063;-79
2021/01/10 11:25:23;;;;;;;7.70;4.47;;;;;;;-0.74;74.20;99678.81;5114947;28;20051;-79
2021/01/10 11:27:50;;;;;;;7.00;4.40;;;;;;;-0.70;72.92;99676.78;5114371;28;20051;-79
2021/01/10 11:30:17;;;;;;;10.63;5.07;;;;;;;-0.65;73.84;99672.00;5115056;28;20054;-79
2021/01/10 11:32:43;;;;;;;7.90;4.43;;;;;;;-0.67;73.04;99657.91;5115463;28;20047;-79
2021/01/10 11:35:10;;;;;;;7.00;4.63;;;;;;;-0.64;73.62;99659.53;5115044;28;20039;-79
2021/01/10 11:37:36;;;;;;;6.20;4.10;;;;;;;-0.52;72.25;99664.03;5115123;28;20124;-79
2021/01/10 11:40:03;;;;;;;8.23;4.33;;;;;;;-0.50;72.18;99655.94;5114416;28;20047;-79
2021/01/10 11:42:29;;;;;;;8.17;3.57;;;;;;;-0.48;71.98;99646.88;5114233;28;20048;-79